sensor_id;sensor_type;location;lat;lon;timestamp;P1;durP1;ratioP1;P2;durP2;ratioP2
20056;SDS011;10189;49.546;7.906;2022-12-18T00:01:21;50.45;;;22.95;;
20056;SDS011;10189;49.546;7.906;2022-12-18T00:04:00;59.15;;;23.70;;
20056;SDS011;10189;49.546;7.906;2022-12-18T00:06:29;58.10;;;24.20;;
20056;SDS011;10189;49.546;7.906;2022-12-18T00:08:58;75.70;;;32.35;;
20056;SDS011;10189;49.546;7.906;2022-12-18T00:11:26;58.50;;;26.58;;
20056;SDS011;10189;49.546;7.906;2022-12-18T00:13:55;48.75;;;20.25;;
20056;SDS011;10189;49.546;7.906;2022-12-18T00:16:24;65.93;;;26.77;;
20056;SDS011;10189;49.546;7.906;2022-12-18T00:18:53;61.35;;;26.00;;
20056;SDS011;10189;49.546;7.906;2022-12-18T00:23:48;58.83;;;23.40;;
20056;SDS011;10189;49.546;7.906;2022-12-18T00:26:19;65.43;;;27.25;;
20056;SDS011;10189;49.546;7.906;2022-12-18T00:28:51;64.18;;;26.70;;
20056;SDS011;10189;49.546;7.906;2022-12-18T00:31:19;67.15;;;27.02;;
20056;SDS011;10189;49.546;7.906;2022-12-18T00:33:53;63.58;;;27.02;;
20056;SDS011;10189;49.546;7.906;2022-12-18T00:36:22;63.08;;;27.30;;
20056;SDS011;10189;49.546;7.906;2022-12-18T00:38:54;75.88;;;26.88;;
20056;SDS011;10189;49.546;7.906;2022-12-18T00:41:22;73.68;;;28.83;;
20056;SDS011;10189;49.546;7.906;2022-12-18T00:44:09;68.47;;;27.50;;
20056;SDS011;10189;49.546;7.906;2022-12-18T00:49:04;70.10;;;26.30;;
20056;SDS011;10189;49.546;7.906;2022-12-18T00:51:30;67.82;;;27.38;;
20056;SDS011;10189;49.546;7.906;2022-12-18T00:53:57;70.88;;;29.05;;
20056;SDS011;10189;49.546;7.906;2022-12-18T00:56:23;67.15;;;28.75;;
20056;SDS011;10189;49.546;7.906;2022-12-18T00:58:49;75.80;;;29.17;;
20056;SDS011;10189;49.546;7.906;2022-12-18T01:01:15;77.80;;;27.85;;
20056;SDS011;10189;49.546;7.906;2022-12-18T01:03:42;74.68;;;29.02;;
20056;SDS011;10189;49.546;7.906;2022-12-18T01:06:11;66.95;;;27.67;;
20056;SDS011;10189;49.546;7.906;2022-12-18T01:08:39;63.08;;;25.73;;
20056;SDS011;10189;49.546;7.906;2022-12-18T01:11:08;69.82;;;28.00;;
20056;SDS011;10189;49.546;7.906;2022-12-18T01:13:37;71.43;;;27.02;;
20056;SDS011;10189;49.546;7.906;2022-12-18T01:16:04;63.78;;;26.70;;
20056;SDS011;10189;49.546;7.906;2022-12-18T01:18:30;69.55;;;29.17;;
20056;SDS011;10189;49.546;7.906;2022-12-18T01:20:57;63.70;;;26.45;;
20056;SDS011;10189;49.546;7.906;2022-12-18T01:23:23;73.88;;;27.23;;
20056;SDS011;10189;49.546;7.906;2022-12-18T01:25:52;94.75;;;29.55;;
20056;SDS011;10189;49.546;7.906;2022-12-18T01:28:17;71.70;;;26.95;;
20056;SDS011;10189;49.546;7.906;2022-12-18T01:30:43;99.50;;;28.00;;
20056;SDS011;10189;49.546;7.906;2022-12-18T01:33:09;84.03;;;27.17;;
20056;SDS011;10189;49.546;7.906;2022-12-18T01:35:39;84.03;;;29.15;;
20056;SDS011;10189;49.546;7.906;2022-12-18T01:38:07;75.22;;;25.67;;
20056;SDS011;10189;49.546;7.906;2022-12-18T01:40:33;90.97;;;26.00;;
20056;SDS011;10189;49.546;7.906;2022-12-18T01:42:59;73.63;;;26.50;;
20056;SDS011;10189;49.546;7.906;2022-12-18T01:45:30;78.55;;;27.85;;
20056;SDS011;10189;49.546;7.906;2022-12-18T01:48:04;68.43;;;26.58;;
20056;SDS011;10189;49.546;7.906;2022-12-18T01:50:35;66.82;;;26.27;;
20056;SDS011;10189;49.546;7.906;2022-12-18T01:53:10;68.88;;;26.70;;
20056;SDS011;10189;49.546;7.906;2022-12-18T01:55:52;112.85;;;28.50;;
20056;SDS011;10189;49.546;7.906;2022-12-18T01:58:27;88.18;;;27.40;;
20056;SDS011;10189;49.546;7.906;2022-12-18T02:01:13;54.27;;;19.57;;
20056;SDS011;10189;49.546;7.906;2022-12-18T02:03:43;63.00;;;27.90;;
20056;SDS011;10189;49.546;7.906;2022-12-18T02:06:12;93.10;;;28.23;;
20056;SDS011;10189;49.546;7.906;2022-12-18T02:11:42;64.30;;;25.63;;
20056;SDS011;10189;49.546;7.906;2022-12-18T02:17:19;68.18;;;26.92;;
20056;SDS011;10189;49.546;7.906;2022-12-18T02:28:35;92.97;;;27.60;;
20056;SDS011;10189;49.546;7.906;2022-12-18T02:31:10;78.68;;;28.45;;
20056;SDS011;10189;49.546;7.906;2022-12-18T02:33:43;75.10;;;28.33;;
20056;SDS011;10189;49.546;7.906;2022-12-18T02:36:12;93.43;;;29.17;;
20056;SDS011;10189;49.546;7.906;2022-12-18T02:38:43;75.53;;;27.85;;
20056;SDS011;10189;49.546;7.906;2022-12-18T02:41:14;73.20;;;26.40;;
20056;SDS011;10189;49.546;7.906;2022-12-18T02:43:48;64.72;;;25.38;;
20056;SDS011;10189;49.546;7.906;2022-12-18T02:46:42;77.90;;;27.60;;
20056;SDS011;10189;49.546;7.906;2022-12-18T03:01:15;74.20;;;25.90;;
20056;SDS011;10189;49.546;7.906;2022-12-18T03:03:52;68.70;;;28.13;;
20056;SDS011;10189;49.546;7.906;2022-12-18T03:06:40;65.18;;;26.88;;
20056;SDS011;10189;49.546;7.906;2022-12-18T03:09:16;77.63;;;26.20;;
20056;SDS011;10189;49.546;7.906;2022-12-18T03:11:50;68.50;;;27.90;;
20056;SDS011;10189;49.546;7.906;2022-12-18T03:14:40;70.95;;;27.00;;
20056;SDS011;10189;49.546;7.906;2022-12-18T03:17:13;67.70;;;26.73;;
20056;SDS011;10189;49.546;7.906;2022-12-18T03:19:45;70.47;;;27.65;;
20056;SDS011;10189;49.546;7.906;2022-12-18T03:22:14;51.08;;;20.65;;
20056;SDS011;10189;49.546;7.906;2022-12-18T03:24:46;74.95;;;27.77;;
20056;SDS011;10189;49.546;7.906;2022-12-18T03:27:14;71.78;;;27.77;;
20056;SDS011;10189;49.546;7.906;2022-12-18T03:29:50;83.68;;;27.13;;
20056;SDS011;10189;49.546;7.906;2022-12-18T03:32:33;64.57;;;24.85;;
20056;SDS011;10189;49.546;7.906;2022-12-18T03:35:21;68.68;;;26.67;;
20056;SDS011;10189;49.546;7.906;2022-12-18T03:37:54;64.57;;;25.40;;
20056;SDS011;10189;49.546;7.906;2022-12-18T03:40:23;63.10;;;26.23;;
20056;SDS011;10189;49.546;7.906;2022-12-18T03:43:08;73.35;;;25.90;;
20056;SDS011;10189;49.546;7.906;2022-12-18T03:45:53;64.07;;;26.25;;
20056;SDS011;10189;49.546;7.906;2022-12-18T03:48:42;60.70;;;25.33;;
20056;SDS011;10189;49.546;7.906;2022-12-18T03:51:22;64.20;;;25.35;;
20056;SDS011;10189;49.546;7.906;2022-12-18T03:54:02;64.88;;;26.10;;
20056;SDS011;10189;49.546;7.906;2022-12-18T03:56:39;58.92;;;24.95;;
20056;SDS011;10189;49.546;7.906;2022-12-18T03:59:13;58.25;;;26.38;;
20056;SDS011;10189;49.546;7.906;2022-12-18T04:01:45;47.13;;;19.05;;
20056;SDS011;10189;49.546;7.906;2022-12-18T04:04:16;67.00;;;25.05;;
20056;SDS011;10189;49.546;7.906;2022-12-18T04:06:45;61.97;;;24.70;;
20056;SDS011;10189;49.546;7.906;2022-12-18T04:09:17;73.80;;;25.85;;
20056;SDS011;10189;49.546;7.906;2022-12-18T04:11:46;60.75;;;23.10;;
20056;SDS011;10189;49.546;7.906;2022-12-18T04:14:14;64.38;;;24.23;;
20056;SDS011;10189;49.546;7.906;2022-12-18T04:16:40;71.78;;;24.02;;
20056;SDS011;10189;49.546;7.906;2022-12-18T04:19:10;73.25;;;26.65;;
20056;SDS011;10189;49.546;7.906;2022-12-18T04:21:39;67.38;;;24.60;;
20056;SDS011;10189;49.546;7.906;2022-12-18T04:24:08;60.28;;;24.20;;
20056;SDS011;10189;49.546;7.906;2022-12-18T04:26:37;68.55;;;25.55;;
20056;SDS011;10189;49.546;7.906;2022-12-18T04:29:20;64.38;;;26.85;;
20056;SDS011;10189;49.546;7.906;2022-12-18T04:31:46;64.47;;;25.25;;
20056;SDS011;10189;49.546;7.906;2022-12-18T04:34:12;61.75;;;25.23;;
20056;SDS011;10189;49.546;7.906;2022-12-18T04:36:47;67.05;;;27.50;;
20056;SDS011;10189;49.546;7.906;2022-12-18T04:39:14;61.70;;;25.58;;
20056;SDS011;10189;49.546;7.906;2022-12-18T04:41:40;60.15;;;25.42;;
20056;SDS011;10189;49.546;7.906;2022-12-18T04:44:07;58.08;;;23.65;;
20056;SDS011;10189;49.546;7.906;2022-12-18T04:46:34;65.95;;;24.08;;
20056;SDS011;10189;49.546;7.906;2022-12-18T04:49:00;70.15;;;24.42;;
20056;SDS011;10189;49.546;7.906;2022-12-18T04:51:25;67.00;;;26.30;;
20056;SDS011;10189;49.546;7.906;2022-12-18T04:53:51;59.90;;;25.15;;
20056;SDS011;10189;49.546;7.906;2022-12-18T04:56:18;67.07;;;25.23;;
20056;SDS011;10189;49.546;7.906;2022-12-18T04:58:44;70.25;;;26.60;;
20056;SDS011;10189;49.546;7.906;2022-12-18T05:01:11;71.15;;;26.67;;
20056;SDS011;10189;49.546;7.906;2022-12-18T05:03:41;56.10;;;24.77;;
20056;SDS011;10189;49.546;7.906;2022-12-18T05:06:07;58.65;;;25.67;;
20056;SDS011;10189;49.546;7.906;2022-12-18T05:08:34;67.60;;;26.52;;
20056;SDS011;10189;49.546;7.906;2022-12-18T05:11:01;68.20;;;25.65;;
20056;SDS011;10189;49.546;7.906;2022-12-18T05:13:36;61.08;;;24.20;;
20056;SDS011;10189;49.546;7.906;2022-12-18T05:16:03;63.78;;;27.17;;
20056;SDS011;10189;49.546;7.906;2022-12-18T05:18:30;65.55;;;24.83;;
20056;SDS011;10189;49.546;7.906;2022-12-18T05:20:56;64.75;;;26.55;;
20056;SDS011;10189;49.546;7.906;2022-12-18T05:23:23;58.75;;;25.08;;
20056;SDS011;10189;49.546;7.906;2022-12-18T05:25:53;66.32;;;25.77;;
20056;SDS011;10189;49.546;7.906;2022-12-18T05:28:25;66.40;;;27.75;;
20056;SDS011;10189;49.546;7.906;2022-12-18T05:30:54;62.97;;;25.17;;
20056;SDS011;10189;49.546;7.906;2022-12-18T05:33:23;59.40;;;24.10;;
20056;SDS011;10189;49.546;7.906;2022-12-18T05:35:53;48.20;;;18.88;;
20056;SDS011;10189;49.546;7.906;2022-12-18T05:38:21;57.70;;;25.52;;
20056;SDS011;10189;49.546;7.906;2022-12-18T05:40:50;59.35;;;24.70;;
20056;SDS011;10189;49.546;7.906;2022-12-18T05:43:17;65.88;;;26.75;;
20056;SDS011;10189;49.546;7.906;2022-12-18T05:45:44;60.22;;;25.02;;
20056;SDS011;10189;49.546;7.906;2022-12-18T05:48:10;64.60;;;25.73;;
20056;SDS011;10189;49.546;7.906;2022-12-18T05:50:37;68.85;;;28.13;;
20056;SDS011;10189;49.546;7.906;2022-12-18T05:53:05;61.55;;;26.00;;
20056;SDS011;10189;49.546;7.906;2022-12-18T05:55:33;67.38;;;27.67;;
20056;SDS011;10189;49.546;7.906;2022-12-18T05:58:01;64.55;;;25.98;;
20056;SDS011;10189;49.546;7.906;2022-12-18T06:00:28;60.63;;;24.35;;
20056;SDS011;10189;49.546;7.906;2022-12-18T06:02:57;60.92;;;24.88;;
20056;SDS011;10189;49.546;7.906;2022-12-18T06:05:24;63.63;;;25.35;;
20056;SDS011;10189;49.546;7.906;2022-12-18T06:07:50;61.90;;;26.25;;
20056;SDS011;10189;49.546;7.906;2022-12-18T06:10:17;63.50;;;26.45;;
20056;SDS011;10189;49.546;7.906;2022-12-18T06:12:43;61.08;;;25.33;;
20056;SDS011;10189;49.546;7.906;2022-12-18T06:15:09;63.92;;;25.67;;
20056;SDS011;10189;49.546;7.906;2022-12-18T06:17:35;64.13;;;25.83;;
20056;SDS011;10189;49.546;7.906;2022-12-18T06:20:02;67.13;;;28.55;;
20056;SDS011;10189;49.546;7.906;2022-12-18T06:22:32;57.72;;;25.23;;
20056;SDS011;10189;49.546;7.906;2022-12-18T06:24:59;63.42;;;25.90;;
20056;SDS011;10189;49.546;7.906;2022-12-18T06:27:26;62.33;;;26.52;;
20056;SDS011;10189;49.546;7.906;2022-12-18T06:29:52;60.90;;;26.35;;
20056;SDS011;10189;49.546;7.906;2022-12-18T06:32:17;64.18;;;26.85;;
20056;SDS011;10189;49.546;7.906;2022-12-18T06:34:43;59.15;;;26.65;;
20056;SDS011;10189;49.546;7.906;2022-12-18T06:37:09;67.72;;;26.20;;
20056;SDS011;10189;49.546;7.906;2022-12-18T06:39:35;66.18;;;27.15;;
20056;SDS011;10189;49.546;7.906;2022-12-18T06:42:01;62.38;;;26.50;;
20056;SDS011;10189;49.546;7.906;2022-12-18T06:44:27;65.30;;;27.52;;
20056;SDS011;10189;49.546;7.906;2022-12-18T06:46:53;67.25;;;26.38;;
20056;SDS011;10189;49.546;7.906;2022-12-18T06:49:20;56.67;;;24.95;;
20056;SDS011;10189;49.546;7.906;2022-12-18T06:51:46;69.85;;;27.25;;
20056;SDS011;10189;49.546;7.906;2022-12-18T06:54:12;64.60;;;28.67;;
20056;SDS011;10189;49.546;7.906;2022-12-18T06:56:38;64.95;;;29.27;;
20056;SDS011;10189;49.546;7.906;2022-12-18T06:59:04;72.70;;;28.38;;
20056;SDS011;10189;49.546;7.906;2022-12-18T07:01:30;67.65;;;26.98;;
20056;SDS011;10189;49.546;7.906;2022-12-18T07:03:56;67.85;;;29.15;;
20056;SDS011;10189;49.546;7.906;2022-12-18T07:06:23;65.32;;;29.02;;
20056;SDS011;10189;49.546;7.906;2022-12-18T07:08:51;70.07;;;29.20;;
20056;SDS011;10189;49.546;7.906;2022-12-18T07:11:19;69.22;;;28.73;;
20056;SDS011;10189;49.546;7.906;2022-12-18T07:13:45;66.50;;;27.90;;
20056;SDS011;10189;49.546;7.906;2022-12-18T07:16:13;70.63;;;28.60;;
20056;SDS011;10189;49.546;7.906;2022-12-18T07:18:44;69.18;;;28.58;;
20056;SDS011;10189;49.546;7.906;2022-12-18T07:21:13;72.53;;;29.73;;
20056;SDS011;10189;49.546;7.906;2022-12-18T07:23:41;70.97;;;28.17;;
20056;SDS011;10189;49.546;7.906;2022-12-18T07:26:08;68.07;;;28.75;;
20056;SDS011;10189;49.546;7.906;2022-12-18T07:28:37;72.03;;;30.00;;
20056;SDS011;10189;49.546;7.906;2022-12-18T07:31:05;68.25;;;28.70;;
20056;SDS011;10189;49.546;7.906;2022-12-18T07:33:34;67.55;;;29.92;;
20056;SDS011;10189;49.546;7.906;2022-12-18T07:36:04;67.95;;;29.63;;
20056;SDS011;10189;49.546;7.906;2022-12-18T07:38:32;72.57;;;29.80;;
20056;SDS011;10189;49.546;7.906;2022-12-18T07:41:04;73.43;;;30.45;;
20056;SDS011;10189;49.546;7.906;2022-12-18T07:43:35;73.65;;;30.27;;
20056;SDS011;10189;49.546;7.906;2022-12-18T07:46:02;71.10;;;30.75;;
20056;SDS011;10189;49.546;7.906;2022-12-18T07:48:29;77.63;;;31.05;;
20056;SDS011;10189;49.546;7.906;2022-12-18T07:50:59;75.68;;;31.58;;
20056;SDS011;10189;49.546;7.906;2022-12-18T07:53:27;83.65;;;35.22;;
20056;SDS011;10189;49.546;7.906;2022-12-18T07:55:56;82.78;;;35.38;;
20056;SDS011;10189;49.546;7.906;2022-12-18T07:58:23;75.88;;;31.90;;
20056;SDS011;10189;49.546;7.906;2022-12-18T08:00:49;81.53;;;32.83;;
20056;SDS011;10189;49.546;7.906;2022-12-18T08:03:15;79.03;;;32.83;;
20056;SDS011;10189;49.546;7.906;2022-12-18T08:05:41;101.97;;;46.75;;
20056;SDS011;10189;49.546;7.906;2022-12-18T08:08:07;88.50;;;36.30;;
20056;SDS011;10189;49.546;7.906;2022-12-18T08:10:33;81.13;;;33.70;;
20056;SDS011;10189;49.546;7.906;2022-12-18T08:12:59;100.32;;;44.53;;
20056;SDS011;10189;49.546;7.906;2022-12-18T08:15:25;83.13;;;33.97;;
20056;SDS011;10189;49.546;7.906;2022-12-18T08:17:51;83.75;;;34.97;;
20056;SDS011;10189;49.546;7.906;2022-12-18T08:20:17;110.20;;;52.35;;
20056;SDS011;10189;49.546;7.906;2022-12-18T08:22:43;84.15;;;34.88;;
20056;SDS011;10189;49.546;7.906;2022-12-18T08:25:10;78.03;;;34.35;;
20056;SDS011;10189;49.546;7.906;2022-12-18T08:27:36;74.93;;;33.10;;
20056;SDS011;10189;49.546;7.906;2022-12-18T08:30:02;81.28;;;34.75;;
20056;SDS011;10189;49.546;7.906;2022-12-18T08:32:29;86.25;;;37.60;;
20056;SDS011;10189;49.546;7.906;2022-12-18T08:34:55;80.97;;;36.22;;
20056;SDS011;10189;49.546;7.906;2022-12-18T08:37:21;82.50;;;35.28;;
20056;SDS011;10189;49.546;7.906;2022-12-18T08:39:47;87.10;;;34.75;;
20056;SDS011;10189;49.546;7.906;2022-12-18T08:42:13;86.40;;;37.25;;
20056;SDS011;10189;49.546;7.906;2022-12-18T08:44:59;88.45;;;37.05;;
20056;SDS011;10189;49.546;7.906;2022-12-18T08:47:25;80.85;;;34.83;;
20056;SDS011;10189;49.546;7.906;2022-12-18T08:49:51;88.50;;;38.05;;
20056;SDS011;10189;49.546;7.906;2022-12-18T08:52:17;81.95;;;34.95;;
20056;SDS011;10189;49.546;7.906;2022-12-18T08:54:43;86.88;;;35.58;;
20056;SDS011;10189;49.546;7.906;2022-12-18T08:57:09;76.35;;;34.55;;
20056;SDS011;10189;49.546;7.906;2022-12-18T08:59:34;86.97;;;38.33;;
20056;SDS011;10189;49.546;7.906;2022-12-18T09:02:00;84.70;;;37.25;;
20056;SDS011;10189;49.546;7.906;2022-12-18T09:04:26;91.93;;;39.17;;
20056;SDS011;10189;49.546;7.906;2022-12-18T09:06:52;103.32;;;46.28;;
20056;SDS011;10189;49.546;7.906;2022-12-18T09:09:18;91.45;;;40.35;;
20056;SDS011;10189;49.546;7.906;2022-12-18T09:11:44;89.35;;;40.67;;
20056;SDS011;10189;49.546;7.906;2022-12-18T09:14:10;93.57;;;40.08;;
20056;SDS011;10189;49.546;7.906;2022-12-18T09:16:36;94.18;;;38.95;;
20056;SDS011;10189;49.546;7.906;2022-12-18T09:19:03;83.75;;;38.03;;
20056;SDS011;10189;49.546;7.906;2022-12-18T09:21:31;90.72;;;40.90;;
20056;SDS011;10189;49.546;7.906;2022-12-18T09:23:59;87.22;;;38.90;;
20056;SDS011;10189;49.546;7.906;2022-12-18T09:26:25;83.20;;;40.30;;
20056;SDS011;10189;49.546;7.906;2022-12-18T09:28:52;84.15;;;41.45;;
20056;SDS011;10189;49.546;7.906;2022-12-18T09:31:20;86.78;;;41.38;;
20056;SDS011;10189;49.546;7.906;2022-12-18T09:33:48;92.55;;;41.35;;
20056;SDS011;10189;49.546;7.906;2022-12-18T09:36:14;90.43;;;40.90;;
20056;SDS011;10189;49.546;7.906;2022-12-18T09:38:42;88.72;;;42.90;;
20056;SDS011;10189;49.546;7.906;2022-12-18T09:41:29;85.15;;;39.95;;
20056;SDS011;10189;49.546;7.906;2022-12-18T09:49:44;86.28;;;40.80;;
20056;SDS011;10189;49.546;7.906;2022-12-18T10:00:35;95.82;;;47.22;;
20056;SDS011;10189;49.546;7.906;2022-12-18T10:03:03;86.22;;;41.88;;
20056;SDS011;10189;49.546;7.906;2022-12-18T10:05:41;90.72;;;42.60;;
20056;SDS011;10189;49.546;7.906;2022-12-18T10:08:39;80.57;;;39.60;;
20056;SDS011;10189;49.546;7.906;2022-12-18T10:19:59;80.32;;;39.70;;
20056;SDS011;10189;49.546;7.906;2022-12-18T10:22:50;82.80;;;40.83;;
20056;SDS011;10189;49.546;7.906;2022-12-18T10:28:15;74.20;;;37.85;;
20056;SDS011;10189;49.546;7.906;2022-12-18T10:30:44;75.00;;;38.50;;
20056;SDS011;10189;49.546;7.906;2022-12-18T10:33:11;76.32;;;38.75;;
20056;SDS011;10189;49.546;7.906;2022-12-18T10:35:42;86.15;;;45.50;;
20056;SDS011;10189;49.546;7.906;2022-12-18T10:43:26;70.03;;;35.95;;
20056;SDS011;10189;49.546;7.906;2022-12-18T10:45:59;59.17;;;32.35;;
20056;SDS011;10189;49.546;7.906;2022-12-18T10:51:19;64.80;;;33.95;;
20056;SDS011;10189;49.546;7.906;2022-12-18T10:54:00;61.92;;;33.92;;
20056;SDS011;10189;49.546;7.906;2022-12-18T10:56:37;73.00;;;42.05;;
20056;SDS011;10189;49.546;7.906;2022-12-18T10:59:04;64.72;;;34.67;;
20056;SDS011;10189;49.546;7.906;2022-12-18T11:06:58;71.22;;;35.85;;
20056;SDS011;10189;49.546;7.906;2022-12-18T11:09:34;60.38;;;32.58;;
20056;SDS011;10189;49.546;7.906;2022-12-18T11:12:03;69.30;;;35.10;;
20056;SDS011;10189;49.546;7.906;2022-12-18T11:17:21;67.55;;;33.63;;
20056;SDS011;10189;49.546;7.906;2022-12-18T11:20:19;68.78;;;33.95;;
20056;SDS011;10189;49.546;7.906;2022-12-18T11:22:54;73.85;;;38.95;;
20056;SDS011;10189;49.546;7.906;2022-12-18T11:25:36;67.40;;;34.08;;
20056;SDS011;10189;49.546;7.906;2022-12-18T11:28:04;68.18;;;35.90;;
20056;SDS011;10189;49.546;7.906;2022-12-18T11:31:08;65.43;;;34.65;;
20056;SDS011;10189;49.546;7.906;2022-12-18T11:33:45;66.13;;;35.75;;
20056;SDS011;10189;49.546;7.906;2022-12-18T11:36:23;67.13;;;33.78;;
20056;SDS011;10189;49.546;7.906;2022-12-18T11:38:56;70.80;;;34.95;;
20056;SDS011;10189;49.546;7.906;2022-12-18T11:44:54;67.55;;;34.42;;
20056;SDS011;10189;49.546;7.906;2022-12-18T11:50:51;69.10;;;35.20;;
20056;SDS011;10189;49.546;7.906;2022-12-18T11:53:26;70.10;;;34.40;;
20056;SDS011;10189;49.546;7.906;2022-12-18T11:56:07;66.40;;;33.15;;
20056;SDS011;10189;49.546;7.906;2022-12-18T11:59:20;66.13;;;35.58;;
20056;SDS011;10189;49.546;7.906;2022-12-18T12:07:55;69.55;;;35.03;;
20056;SDS011;10189;49.546;7.906;2022-12-18T12:13:37;73.13;;;35.28;;
20056;SDS011;10189;49.546;7.906;2022-12-18T12:16:29;73.22;;;37.03;;
20056;SDS011;10189;49.546;7.906;2022-12-18T12:22:21;72.88;;;37.17;;
20056;SDS011;10189;49.546;7.906;2022-12-18T12:27:46;76.45;;;38.28;;
20056;SDS011;10189;49.546;7.906;2022-12-18T12:39:30;76.00;;;39.63;;
20056;SDS011;10189;49.546;7.906;2022-12-18T12:42:18;75.95;;;38.15;;
20056;SDS011;10189;49.546;7.906;2022-12-18T12:45:26;81.78;;;42.22;;
20056;SDS011;10189;49.546;7.906;2022-12-18T12:48:43;77.30;;;38.67;;
20056;SDS011;10189;49.546;7.906;2022-12-18T12:51:28;78.13;;;37.78;;
20056;SDS011;10189;49.546;7.906;2022-12-18T12:53:59;72.63;;;37.35;;
20056;SDS011;10189;49.546;7.906;2022-12-18T12:59:31;75.97;;;36.30;;
20056;SDS011;10189;49.546;7.906;2022-12-18T13:08:29;71.32;;;37.03;;
20056;SDS011;10189;49.546;7.906;2022-12-18T13:11:38;74.20;;;38.78;;
20056;SDS011;10189;49.546;7.906;2022-12-18T13:19:50;67.85;;;36.65;;
20056;SDS011;10189;49.546;7.906;2022-12-18T13:22:30;67.72;;;35.38;;
20056;SDS011;10189;49.546;7.906;2022-12-18T13:28:04;71.80;;;36.88;;
20056;SDS011;10189;49.546;7.906;2022-12-18T13:33:43;69.68;;;36.22;;
20056;SDS011;10189;49.546;7.906;2022-12-18T13:39:08;74.90;;;38.83;;
20056;SDS011;10189;49.546;7.906;2022-12-18T13:41:35;77.32;;;40.13;;
20056;SDS011;10189;49.546;7.906;2022-12-18T13:46:58;70.38;;;36.63;;
20056;SDS011;10189;49.546;7.906;2022-12-18T13:49:39;71.13;;;36.50;;
20056;SDS011;10189;49.546;7.906;2022-12-18T13:52:22;80.47;;;39.55;;
20056;SDS011;10189;49.546;7.906;2022-12-18T13:54:55;69.93;;;36.78;;
20056;SDS011;10189;49.546;7.906;2022-12-18T13:57:33;74.38;;;38.70;;
20056;SDS011;10189;49.546;7.906;2022-12-18T14:02:47;78.78;;;42.17;;
20056;SDS011;10189;49.546;7.906;2022-12-18T14:05:25;93.78;;;48.85;;
20056;SDS011;10189;49.546;7.906;2022-12-18T14:08:10;73.80;;;36.40;;
20056;SDS011;10189;49.546;7.906;2022-12-18T14:10:40;68.68;;;35.35;;
20056;SDS011;10189;49.546;7.906;2022-12-18T14:13:29;65.80;;;35.65;;
20056;SDS011;10189;49.546;7.906;2022-12-18T14:16:06;80.18;;;41.28;;
20056;SDS011;10189;49.546;7.906;2022-12-18T14:18:36;74.60;;;40.10;;
20056;SDS011;10189;49.546;7.906;2022-12-18T14:26:39;72.63;;;38.58;;
20056;SDS011;10189;49.546;7.906;2022-12-18T14:29:19;77.18;;;39.15;;
20056;SDS011;10189;49.546;7.906;2022-12-18T14:32:11;79.88;;;41.28;;
20056;SDS011;10189;49.546;7.906;2022-12-18T14:34:44;72.15;;;39.58;;
20056;SDS011;10189;49.546;7.906;2022-12-18T14:37:23;95.95;;;49.25;;
20056;SDS011;10189;49.546;7.906;2022-12-18T14:42:24;95.10;;;46.67;;
20056;SDS011;10189;49.546;7.906;2022-12-18T14:47:58;86.03;;;41.45;;
20056;SDS011;10189;49.546;7.906;2022-12-18T14:50:24;87.65;;;43.70;;
20056;SDS011;10189;49.546;7.906;2022-12-18T14:52:51;75.72;;;39.50;;
20056;SDS011;10189;49.546;7.906;2022-12-18T14:55:18;88.40;;;43.80;;
20056;SDS011;10189;49.546;7.906;2022-12-18T14:57:49;166.70;;;64.68;;
20056;SDS011;10189;49.546;7.906;2022-12-18T15:00:20;80.28;;;41.20;;
20056;SDS011;10189;49.546;7.906;2022-12-18T15:02:50;93.75;;;44.95;;
20056;SDS011;10189;49.546;7.906;2022-12-18T15:05:27;126.22;;;55.15;;
20056;SDS011;10189;49.546;7.906;2022-12-18T15:07:57;93.70;;;43.45;;
20056;SDS011;10189;49.546;7.906;2022-12-18T15:20:42;86.43;;;40.55;;
20056;SDS011;10189;49.546;7.906;2022-12-18T15:25:56;88.53;;;42.75;;
20056;SDS011;10189;49.546;7.906;2022-12-18T15:29:15;96.45;;;46.92;;
20056;SDS011;10189;49.546;7.906;2022-12-18T15:31:30;96.25;;;46.85;;
20056;SDS011;10189;49.546;7.906;2022-12-18T15:34:04;86.70;;;43.13;;
20056;SDS011;10189;49.546;7.906;2022-12-18T15:36:45;110.40;;;55.03;;
20056;SDS011;10189;49.546;7.906;2022-12-18T15:39:11;96.75;;;48.28;;
20056;SDS011;10189;49.546;7.906;2022-12-18T15:41:38;115.63;;;54.03;;
20056;SDS011;10189;49.546;7.906;2022-12-18T15:47:04;90.93;;;45.22;;
20056;SDS011;10189;49.546;7.906;2022-12-18T15:52:19;90.30;;;43.30;;
20056;SDS011;10189;49.546;7.906;2022-12-18T15:54:51;91.70;;;46.35;;
20056;SDS011;10189;49.546;7.906;2022-12-18T15:57:35;92.25;;;46.35;;
20056;SDS011;10189;49.546;7.906;2022-12-18T16:00:01;100.10;;;49.05;;
20056;SDS011;10189;49.546;7.906;2022-12-18T16:02:30;93.45;;;46.72;;
20056;SDS011;10189;49.546;7.906;2022-12-18T16:04:55;94.03;;;47.05;;
20056;SDS011;10189;49.546;7.906;2022-12-18T16:07:21;96.25;;;48.40;;
20056;SDS011;10189;49.546;7.906;2022-12-18T16:09:48;97.43;;;48.55;;
20056;SDS011;10189;49.546;7.906;2022-12-18T16:12:15;92.70;;;48.05;;
20056;SDS011;10189;49.546;7.906;2022-12-18T16:14:45;93.65;;;46.70;;
20056;SDS011;10189;49.546;7.906;2022-12-18T16:17:12;101.22;;;49.03;;
20056;SDS011;10189;49.546;7.906;2022-12-18T16:19:39;96.97;;;48.92;;
20056;SDS011;10189;49.546;7.906;2022-12-18T16:22:05;98.68;;;47.72;;
20056;SDS011;10189;49.546;7.906;2022-12-18T16:24:47;101.93;;;49.40;;
20056;SDS011;10189;49.546;7.906;2022-12-18T16:27:14;102.47;;;51.13;;
20056;SDS011;10189;49.546;7.906;2022-12-18T16:29:40;117.15;;;57.55;;
20056;SDS011;10189;49.546;7.906;2022-12-18T16:32:06;102.85;;;49.80;;
20056;SDS011;10189;49.546;7.906;2022-12-18T16:34:38;95.10;;;47.85;;
20056;SDS011;10189;49.546;7.906;2022-12-18T16:37:04;98.53;;;49.58;;
20056;SDS011;10189;49.546;7.906;2022-12-18T16:39:33;100.07;;;51.07;;
20056;SDS011;10189;49.546;7.906;2022-12-18T16:42:02;105.47;;;49.70;;
20056;SDS011;10189;49.546;7.906;2022-12-18T16:44:31;76.78;;;38.40;;
20056;SDS011;10189;49.546;7.906;2022-12-18T16:47:00;95.45;;;46.53;;
20056;SDS011;10189;49.546;7.906;2022-12-18T16:49:27;105.47;;;50.63;;
20056;SDS011;10189;49.546;7.906;2022-12-18T16:51:54;95.40;;;47.70;;
20056;SDS011;10189;49.546;7.906;2022-12-18T16:54:20;97.60;;;50.05;;
20056;SDS011;10189;49.546;7.906;2022-12-18T16:56:45;103.95;;;49.88;;
20056;SDS011;10189;49.546;7.906;2022-12-18T16:59:14;100.70;;;47.85;;
20056;SDS011;10189;49.546;7.906;2022-12-18T17:01:40;106.85;;;51.55;;
20056;SDS011;10189;49.546;7.906;2022-12-18T17:04:06;100.53;;;50.35;;
20056;SDS011;10189;49.546;7.906;2022-12-18T17:06:34;95.22;;;48.40;;
20056;SDS011;10189;49.546;7.906;2022-12-18T17:09:06;107.97;;;50.92;;
20056;SDS011;10189;49.546;7.906;2022-12-18T17:11:39;103.68;;;50.67;;
20056;SDS011;10189;49.546;7.906;2022-12-18T17:14:09;100.95;;;49.33;;
20056;SDS011;10189;49.546;7.906;2022-12-18T17:16:42;100.60;;;49.78;;
20056;SDS011;10189;49.546;7.906;2022-12-18T17:19:08;105.65;;;51.40;;
20056;SDS011;10189;49.546;7.906;2022-12-18T17:21:35;105.43;;;53.15;;
20056;SDS011;10189;49.546;7.906;2022-12-18T17:24:01;100.97;;;49.78;;
20056;SDS011;10189;49.546;7.906;2022-12-18T17:26:27;91.68;;;48.50;;
20056;SDS011;10189;49.546;7.906;2022-12-18T17:28:57;103.95;;;51.47;;